Time;durP1;ratioP1;P1;durP2;ratioP2;P2;SDS_P1;SDS_P2;PMS_P1;PMS_P2;Temp;Humidity;BMP_temperature;BMP_pressure;BME280_temperature;BME280_humidity;BME280_pressure;Samples;Min_cycle;Max_cycle;Signal;HPM_P1;HPM_P2
2022/03/21 00:01:21;;;;;;;14.07;8.77;;;7.60;1.00;;;;;;5065942;28;20477;-62
2022/03/21 00:03:46;;;;;;;14.43;9.00;;;7.50;1.00;;;;;;5041313;28;20458;-62
2022/03/21 00:06:12;;;;;;;10.73;8.10;;;;;;;;;;5059719;28;21002;-61
2022/03/21 00:08:39;;;;;;;9.40;8.40;;;;;;;;;;5059473;28;20241;-60
2022/03/21 00:11:05;;;;;;;9.83;7.90;;;;;;;;;;5058015;28;20487;-60
2022/03/21 00:13:31;;;;;;;12.20;9.10;;;;;;;;;;5066158;28;20453;-61
2022/03/21 00:15:57;;;;;;;14.10;9.40;;;7.20;1.00;;;;;;5067605;28;20456;-61
2022/03/21 00:18:24;;;;;;;13.83;8.83;;;7.30;1.00;;;;;;5069742;28;20460;-62
2022/03/21 00:20:53;;;;;;;12.80;9.20;;;7.40;1.00;;;;;;5070948;28;20499;-61
2022/03/21 00:23:19;;;;;;;11.30;8.20;;;7.20;1.00;;;;;;5073291;28;20521;-61
2022/03/21 00:25:45;;;;;;;9.67;8.20;;;7.10;1.00;;;;;;5048934;28;20447;-60
2022/03/21 00:28:11;;;;;;;14.00;9.27;;;7.40;1.00;;;;;;5069895;28;21016;-60
2022/03/21 00:30:38;;;;;;;11.70;9.10;;;7.20;1.00;;;;;;5071593;28;20187;-60
2022/03/21 00:33:04;;;;;;;10.93;8.53;;;7.20;1.00;;;;;;5067282;28;20449;-59
2022/03/21 00:35:30;;;;;;;9.93;8.77;;;7.20;1.00;;;;;;5069243;28;20460;-59
2022/03/21 00:37:56;;;;;;;12.50;8.83;;;7.10;1.00;;;;;;5069383;28;20195;-62
2022/03/21 00:40:24;;;;;;;10.30;8.53;;;7.10;1.00;;;;;;5068992;28;20513;-61
2022/03/21 00:42:50;;;;;;;12.37;8.27;;;7.00;1.00;;;;;;5052806;28;20469;-60
2022/03/21 00:45:19;;;;;;;11.43;8.47;;;7.00;1.00;;;;;;5070073;28;21424;-60
2022/03/21 00:47:46;;;;;;;13.03;8.07;;;6.90;1.00;;;;;;5070658;28;20430;-62
2022/03/21 00:50:14;;;;;;;11.47;8.40;;;6.80;1.00;;;;;;5069691;28;21272;-60
2022/03/21 00:52:42;;;;;;;11.53;8.20;;;6.80;1.00;;;;;;5067293;28;20441;-62
2022/03/21 00:55:09;;;;;;;10.60;8.50;;;6.70;1.00;;;;;;5051314;28;20479;-63
2022/03/21 00:57:35;;;;;;;10.53;8.30;;;6.70;1.00;;;;;;5071969;28;20775;-61
2022/03/21 01:00:03;;;;;;;11.63;8.20;;;6.70;1.00;;;;;;5070512;28;20465;-61
2022/03/21 01:02:29;;;;;;;12.50;8.83;;;6.70;1.00;;;;;;5068915;28;20973;-60
2022/03/21 01:04:55;;;;;;;10.67;8.53;;;6.70;1.00;;;;;;5069752;28;20477;-59
2022/03/21 01:07:21;;;;;;;10.80;9.07;;;6.60;1.00;;;;;;5069352;28;20194;-60
2022/03/21 01:09:47;;;;;;;11.77;8.90;;;6.50;1.00;;;;;;5069698;28;20767;-60
2022/03/21 01:12:14;;;;;;;11.37;8.60;;;;;;;;;;5070365;28;20191;-61
2022/03/21 01:14:40;;;;;;;12.60;8.20;;;6.30;1.00;;;;;;5068597;28;20187;-62
2022/03/21 01:17:06;;;;;;;10.00;7.80;;;6.30;1.00;;;;;;5067517;28;20448;-60
2022/03/21 01:19:31;;;;;;;12.00;8.97;;;6.20;1.00;;;;;;5071445;28;20195;-60
2022/03/21 01:21:57;;;;;;;13.40;8.50;;;6.20;1.00;;;;;;5068410;28;20207;-61
2022/03/21 01:24:23;;;;;;;10.93;7.87;;;6.10;1.00;;;;;;5071254;28;20262;-61
2022/03/21 01:26:49;;;;;;;9.23;8.30;;;6.00;1.00;;;;;;5065596;28;20588;-60
2022/03/21 01:29:14;;;;;;;11.77;8.87;;;5.90;1.00;;;;;;5070504;28;20453;-61
2022/03/21 01:31:40;;;;;;;9.33;7.60;;;5.90;1.00;;;;;;5069261;28;20270;-61
2022/03/21 01:34:05;;;;;;;12.00;9.43;;;5.90;1.00;;;;;;5067661;28;20187;-61
2022/03/21 01:36:31;;;;;;;11.70;8.10;;;;;;;;;;5070575;28;20198;-61
2022/03/21 01:38:57;;;;;;;11.60;8.20;;;5.90;1.00;;;;;;5037891;28;20202;-60
2022/03/21 01:41:22;;;;;;;11.77;8.97;;;5.90;1.00;;;;;;5069887;28;20533;-61
2022/03/21 01:44:17;;;;;;;9.97;7.83;;;6.00;1.00;;;;;;5065781;28;20284;-60
2022/03/21 01:46:44;;;;;;;9.37;8.40;;;6.00;1.00;;;;;;5083840;28;20262;-61
2022/03/21 01:49:11;;;;;;;12.40;8.53;;;5.90;1.00;;;;;;5065049;28;20549;-60
2022/03/21 01:51:40;;;;;;;9.40;7.70;;;5.90;1.00;;;;;;5069896;28;21017;-60
2022/03/21 01:56:51;;;;;;;10.73;9.10;;;5.90;1.00;;;;;;5067650;28;20444;-61
2022/03/21 01:59:17;;;;;;;11.90;8.60;;;5.90;1.00;;;;;;5066923;28;20472;-61
2022/03/21 02:01:43;;;;;;;11.60;8.20;;;5.90;1.00;;;;;;5069804;28;20445;-59
2022/03/21 02:04:09;;;;;;;10.70;8.33;;;5.90;1.00;;;;;;5068291;28;20931;-59
2022/03/21 02:06:36;;;;;;;10.83;7.27;;;5.80;1.00;;;;;;5067831;28;20249;-60
2022/03/21 02:09:05;;;;;;;10.93;8.73;;;5.80;1.00;;;;;;5069148;28;20520;-61
2022/03/21 02:11:32;;;;;;;9.10;8.10;;;5.80;1.00;;;;;;5067956;28;20454;-62
2022/03/21 02:14:00;;;;;;;9.67;8.30;;;5.80;1.00;;;;;;5064765;28;20450;-60
2022/03/21 02:16:27;;;;;;;8.80;7.60;;;5.90;1.00;;;;;;5063743;28;20533;-61
2022/03/21 02:18:53;;;;;;;9.30;7.60;;;5.90;1.00;;;;;;5069138;28;20540;-62
2022/03/21 02:21:36;;;;;;;10.40;7.20;;;5.80;1.00;;;;;;5068890;28;20437;-61
2022/03/21 02:24:23;;;;;;;13.53;9.47;;;5.80;1.00;;;;;;5068976;28;20452;-62
2022/03/21 02:26:50;;;;;;;9.77;7.17;;;5.50;1.00;;;;;;5050558;28;20464;-60
2022/03/21 02:29:17;;;;;;;11.10;8.63;;;5.50;1.00;;;;;;5064213;28;20883;-61
2022/03/21 02:31:43;;;;;;;12.73;9.07;;;5.50;1.00;;;;;;5068433;28;20457;-61
2022/03/21 02:34:10;;;;;;;10.07;8.13;;;7.20;1.00;;;;;;5065329;28;20440;-60
2022/03/21 02:36:37;;;;;;;12.50;9.90;;;5.50;1.00;;;;;;5069209;28;20817;-59
2022/03/21 02:39:03;;;;;;;11.27;8.13;;;5.50;1.00;;;;;;5067802;28;20951;-60
2022/03/21 02:41:28;;;;;;;8.90;7.80;;;5.40;1.00;;;;;;5068453;28;20441;-60
2022/03/21 02:43:55;;;;;;;11.20;7.80;;;5.40;1.00;;;;;;5068177;28;20842;-60
2022/03/21 02:46:22;;;;;;;14.47;8.13;;;5.30;1.00;;;;;;5068703;28;20187;-62
2022/03/21 02:48:48;;;;;;;9.90;8.17;;;5.40;1.00;;;;;;5065981;28;20477;-61
2022/03/21 02:51:14;;;;;;;10.77;8.60;;;5.30;1.00;;;;;;5066819;28;20452;-61
2022/03/21 02:53:41;;;;;;;10.70;7.70;;;5.20;1.00;;;;;;5068345;28;20953;-61
2022/03/21 02:56:07;;;;;;;10.23;6.97;;;5.30;1.00;;;;;;5049046;28;20481;-61
2022/03/21 02:58:33;;;;;;;14.10;7.80;;;5.20;1.00;;;;;;5070848;28;20483;-60
2022/03/21 03:01:13;;;;;;;10.73;8.20;;;5.30;1.00;;;;;;5069802;28;20663;-62
2022/03/21 03:03:39;;;;;;;11.27;7.97;;;5.30;1.00;;;;;;5050853;28;20861;-61
2022/03/21 03:06:05;;;;;;;9.40;7.93;;;5.20;1.00;;;;;;5071076;28;20469;-59
2022/03/21 03:08:31;;;;;;;16.13;7.57;;;5.20;1.00;;;;;;5070032;28;20180;-59
2022/03/21 03:10:56;;;;;;;11.40;8.33;;;5.20;1.00;;;;;;5070720;28;21400;-60
2022/03/21 03:13:22;;;;;;;8.20;7.33;;;5.20;1.00;;;;;;5072717;28;20477;-60
2022/03/21 03:15:48;;;;;;;11.00;7.50;;;5.10;1.00;;;;;;5071616;28;20549;-60
2022/03/21 03:18:14;;;;;;;10.00;8.10;;;5.00;1.00;;;;;;5071708;28;20187;-61
2022/03/21 03:20:50;;;;;;;9.47;7.70;;;5.10;1.00;;;;;;5073057;28;20719;-59
2022/03/21 03:23:18;;;;;;;14.83;7.70;;;5.00;1.00;;;;;;5070608;28;20436;-62
2022/03/21 03:25:44;;;;;;;10.30;7.27;;;5.00;1.00;;;;;;5053572;28;20452;-60
2022/03/21 03:28:09;;;;;;;11.60;8.20;;;5.00;1.00;;;;;;5067845;28;20434;-60
2022/03/21 03:30:35;;;;;;;10.00;7.90;;;5.00;1.00;;;;;;5070778;28;20183;-61
2022/03/21 03:33:01;;;;;;;10.10;8.30;;;4.90;1.00;;;;;;5069213;28;20184;-60
2022/03/21 03:35:27;;;;;;;9.87;7.40;;;4.90;1.00;;;;;;5074767;28;20249;-60
2022/03/21 03:37:53;;;;;;;9.90;7.40;;;5.00;1.00;;;;;;5070628;28;20943;-59
2022/03/21 03:40:21;;;;;;;11.60;7.53;;;5.00;1.00;;;;;;5059980;28;20223;-61
2022/03/21 03:42:47;;;;;;;9.03;7.90;;;5.00;1.00;;;;;;5068582;28;20256;-60
2022/03/21 03:45:13;;;;;;;12.07;7.43;;;4.90;1.00;;;;;;5071502;28;20437;-61
2022/03/21 03:47:39;;;;;;;10.23;7.20;;;4.80;1.00;;;;;;5069841;28;20223;-61
2022/03/21 03:50:05;;;;;;;11.47;7.90;;;4.80;1.00;;;;;;5072864;28;20456;-59
2022/03/21 03:52:31;;;;;;;9.60;8.30;;;4.80;1.00;;;;;;5072944;28;20441;-60
2022/03/21 03:54:56;;;;;;;7.87;6.47;;;4.80;1.00;;;;;;5072218;28;20437;-60
2022/03/21 03:57:22;;;;;;;8.87;7.90;;;4.80;1.00;;;;;;5052395;28;20207;-60
2022/03/21 03:59:48;;;;;;;9.73;7.20;;;;;;;;;;5072590;28;20207;-62
2022/03/21 04:02:13;;;;;;;8.40;7.30;;;4.90;1.00;;;;;;5069552;28;20186;-60
2022/03/21 04:04:39;;;;;;;11.33;7.27;;;4.90;1.00;;;;;;5066469;28;20465;-60
2022/03/21 04:07:05;;;;;;;10.20;7.77;;;4.80;1.00;;;;;;5068368;28;20230;-61
2022/03/21 04:09:30;;;;;;;9.77;7.90;;;4.80;1.00;;;;;;5068488;28;20536;-59
2022/03/21 04:11:56;;;;;;;12.50;8.07;;;;;;;;;;5069246;28;20183;-59
2022/03/21 04:14:23;;;;;;;9.53;7.33;;;;;;;;;;5070240;28;20642;-59
2022/03/21 04:16:49;;;;;;;10.23;7.07;;;;;;;;;;5068537;28;20445;-60
2022/03/21 04:19:14;;;;;;;10.70;7.77;;;4.80;1.00;;;;;;5067735;28;20555;-61
2022/03/21 04:21:40;;;;;;;8.93;7.40;;;4.70;1.00;;;;;;5070165;28;20539;-61
2022/03/21 04:24:07;;;;;;;8.97;6.97;;;4.70;1.00;;;;;;5070382;28;20266;-59
2022/03/21 04:26:33;;;;;;;9.30;7.47;;;4.70;1.00;;;;;;5070028;28;20445;-59
2022/03/21 04:28:59;;;;;;;9.13;6.80;;;4.70;1.00;;;;;;5052689;28;20437;-61
2022/03/21 04:31:25;;;;;;;8.07;7.23;;;4.80;1.00;;;;;;5067608;28;20204;-59
2022/03/21 04:33:50;;;;;;;8.30;6.90;;;4.70;1.00;;;;;;5070602;28;20464;-59
2022/03/21 04:36:16;;;;;;;12.30;8.23;;;4.60;1.00;;;;;;5052325;28;20305;-59
2022/03/21 04:38:41;;;;;;;11.67;8.13;;;4.50;1.00;;;;;;5066657;28;20286;-59
2022/03/21 04:41:08;;;;;;;10.60;7.10;;;4.50;1.00;;;;;;5071332;28;20655;-62
2022/03/21 04:43:33;;;;;;;13.07;7.73;;;4.50;1.00;;;;;;5066849;28;20294;-59
2022/03/21 04:45:59;;;;;;;9.73;7.23;;;4.50;1.00;;;;;;5066268;28;20547;-60
2022/03/21 04:48:25;;;;;;;9.70;7.10;;;;;;;;;;5066217;28;20203;-60
2022/03/21 04:50:51;;;;;;;8.93;6.77;;;4.50;1.00;;;;;;5066261;28;20197;-61
2022/03/21 04:53:17;;;;;;;8.93;6.83;;;4.40;1.00;;;;;;5069445;28;20445;-59
2022/03/21 04:55:42;;;;;;;8.67;7.80;;;4.50;1.00;;;;;;5069095;28;20457;-59
2022/03/21 04:58:09;;;;;;;10.23;7.60;;;4.50;1.00;;;;;;5064416;28;20245;-60
2022/03/21 05:00:35;;;;;;;9.90;7.43;;;4.50;1.00;;;;;;5067933;28;20325;-60
2022/03/21 05:03:01;;;;;;;9.60;7.00;;;4.50;1.00;;;;;;5067632;28;20450;-61
2022/03/21 05:05:31;;;;;;;11.38;7.85;;;4.60;1.00;;;;;;5031135;28;1047603;-60
2022/03/21 05:07:57;;;;;;;9.37;7.37;;;4.70;1.00;;;;;;5067951;28;20594;-60
2022/03/21 05:10:23;;;;;;;8.73;7.10;;;4.80;1.00;;;;;;5070727;28;20437;-60
2022/03/21 05:12:50;;;;;;;8.80;6.50;;;4.80;1.00;;;;;;5071342;28;20171;-59
2022/03/21 05:15:16;;;;;;;11.20;7.03;;;4.70;1.00;;;;;;5069358;28;20275;-60
2022/03/21 05:17:43;;;;;;;8.37;7.20;;;4.70;1.00;;;;;;5067848;28;20969;-61
2022/03/21 05:20:18;;;;;;;8.70;7.00;;;4.70;1.00;;;;;;5067650;28;20679;-59
2022/03/21 05:30:57;;;;;;;10.00;7.87;;;4.80;1.00;;;;;;5068188;28;20524;-61
2022/03/21 05:31:07;;;;;;;12.67;7.87;;;4.80;1.00;;;;;;5067875;28;20511;-61
2022/03/21 05:36:18;;;;;;;10.50;7.80;;;4.80;1.00;;;;;;5067632;28;20479;-60
2022/03/21 05:38:44;;;;;;;10.90;8.03;;;4.90;1.00;;;;;;5065546;28;20452;-60
2022/03/21 05:41:10;;;;;;;10.73;6.67;;;4.90;1.00;;;;;;5059173;28;20584;-60
2022/03/21 05:43:36;;;;;;;8.40;6.57;;;4.90;1.00;;;;;;5068523;28;20516;-60
2022/03/21 05:46:06;;;;;;;7.50;6.80;;;4.90;1.00;;;;;;5066037;28;20799;-59
2022/03/21 05:48:51;;;;;;;9.33;7.30;;;4.90;1.00;;;;;;5069767;28;20183;-62
2022/03/21 05:51:31;;;;;;;9.87;7.47;;;5.00;1.00;;;;;;5068322;28;20499;-61
2022/03/21 05:53:58;;;;;;;10.07;7.87;;;5.00;1.00;;;;;;5070116;28;20434;-62
2022/03/21 05:56:25;;;;;;;9.53;7.70;;;5.00;1.00;;;;;;5068330;28;20437;-59
2022/03/21 05:58:52;;;;;;;9.27;6.97;;;5.10;1.00;;;;;;5066153;28;20553;-60
2022/03/21 06:01:25;;;;;;;11.20;8.13;;;5.10;1.00;;;;;;5069457;28;20438;-60
2022/03/21 06:03:52;;;;;;;10.50;6.80;;;5.10;1.00;;;;;;5063978;28;20433;-66
2022/03/21 06:06:19;;;;;;;10.57;7.43;;;5.20;1.00;;;;;;5065151;28;20481;-64
2022/03/21 06:08:44;;;;;;;11.47;7.77;;;5.30;1.00;;;;;;5069668;28;20426;-64
2022/03/21 06:11:12;;;;;;;10.40;8.47;;;5.40;1.00;;;;;;5068722;28;20467;-63
2022/03/21 06:13:40;;;;;;;8.60;6.97;;;5.40;1.00;;;;;;5068046;28;20180;-63
2022/03/21 06:16:07;;;;;;;10.07;7.73;;;5.50;1.00;;;;;;5068904;28;20446;-63
2022/03/21 06:18:33;;;;;;;15.20;7.23;;;5.40;1.00;;;;;;5050556;28;20818;-63
2022/03/21 06:21:00;;;;;;;10.40;7.17;;;5.50;1.00;;;;;;5068904;28;20488;-64
2022/03/21 06:23:26;;;;;;;7.57;6.70;;;5.50;1.00;;;;;;5068871;28;20452;-65
2022/03/21 06:25:53;;;;;;;10.30;7.70;;;5.50;1.00;;;;;;5069132;28;20438;-64
2022/03/21 06:28:20;;;;;;;9.47;7.30;;;5.90;1.00;;;;;;5065809;28;20449;-62
2022/03/21 06:30:46;;;;;;;13.43;7.23;;;6.00;1.00;;;;;;5066534;28;20540;-60
2022/03/21 06:33:12;;;;;;;10.17;7.30;;;6.20;1.00;;;;;;5066759;28;20889;-59
2022/03/21 06:35:38;;;;;;;11.13;7.57;;;6.30;1.00;;;;;;5066763;28;20271;-58
2022/03/21 06:38:03;;;;;;;10.80;6.90;;;6.20;1.00;;;;;;5064154;28;20263;-61
2022/03/21 06:40:30;;;;;;;9.90;7.20;;;6.30;1.00;;;;;;5066755;28;20959;-60
2022/03/21 06:42:56;;;;;;;8.97;7.83;;;6.40;1.00;;;;;;5069610;28;20186;-58
2022/03/21 06:45:22;;;;;;;13.13;8.53;;;6.40;1.00;;;;;;5069902;28;20449;-59
2022/03/21 06:47:49;;;;;;;9.10;7.40;;;6.50;1.00;;;;;;5050176;28;20657;-60
2022/03/21 06:50:14;;;;;;;10.43;7.70;;;6.60;1.00;;;;;;5066224;28;20187;-57
2022/03/21 06:52:40;;;;;;;9.30;7.63;;;7.00;1.00;;;;;;5067657;28;20440;-60
2022/03/21 06:55:10;;;;;;;10.70;7.70;;;7.10;1.00;;;;;;5070050;28;20598;-60
2022/03/21 06:57:35;;;;;;;11.67;8.77;;;7.20;1.00;;;;;;5068025;28;20232;-59
2022/03/21 07:00:02;;;;;;;11.67;7.30;;;7.30;1.00;;;;;;5068909;28;20461;-59
2022/03/21 07:02:29;;;;;;;9.50;7.77;;;7.30;1.00;;;;;;5066212;28;20483;-58
2022/03/21 07:04:55;;;;;;;12.23;7.00;;;7.30;1.00;;;;;;5061741;28;20544;-59
2022/03/21 07:07:21;;;;;;;9.10;7.23;;;7.30;1.00;;;;;;5064978;28;20457;-59
2022/03/21 07:09:47;;;;;;;8.97;7.17;;;;;;;;;;5067857;28;20184;-59
2022/03/21 07:12:12;;;;;;;12.23;7.90;;;7.50;1.00;;;;;;5063706;28;20191;-59
2022/03/21 07:14:38;;;;;;;10.70;7.53;;;7.50;1.00;;;;;;5069307;28;20450;-60
2022/03/21 07:17:04;;;;;;;8.87;6.67;;;7.60;1.00;;;;;;5067017;28;20265;-60
2022/03/21 07:19:29;;;;;;;9.00;6.80;;;7.70;1.00;;;;;;5067974;28;20207;-60
2022/03/21 07:21:55;;;;;;;10.00;7.10;;;7.90;1.00;;;;;;5068390;28;21002;-59
2022/03/21 07:24:20;;;;;;;8.37;7.13;;;8.00;1.00;;;;;;5070397;28;20258;-60
2022/03/21 07:26:46;;;;;;;11.77;7.80;;;8.00;1.00;;;;;;5066507;28;20660;-60
2022/03/21 07:29:12;;;;;;;11.07;8.33;;;8.20;1.00;;;;;;5064054;28;20184;-61
2022/03/21 07:31:38;;;;;;;12.40;7.67;;;8.40;1.00;;;;;;5068379;28;20548;-61
2022/03/21 07:34:04;;;;;;;11.03;7.20;;;8.40;1.00;;;;;;5050672;28;20222;-61
2022/03/21 07:36:30;;;;;;;9.67;6.20;;;8.40;1.00;;;;;;5068973;28;20503;-60
2022/03/21 07:38:57;;;;;;;12.97;7.23;;;8.60;1.00;;;;;;5070048;28;20464;-60
2022/03/21 07:41:26;;;;;;;8.00;6.53;;;8.50;1.00;;;;;;5068876;28;20907;-60
2022/03/21 07:43:54;;;;;;;8.53;6.57;;;8.70;1.00;;;;;;5072854;28;20433;-60
2022/03/21 07:49:05;;;;;;;9.83;7.10;;;8.90;1.00;;;;;;5073882;28;20455;-60
2022/03/21 07:51:31;;;;;;;10.10;6.67;;;;;;;;;;5072294;28;20448;-60
2022/03/21 07:53:57;;;;;;;9.63;6.57;;;9.00;1.00;;;;;;5068609;28;20453;-59
2022/03/21 07:56:23;;;;;;;9.17;6.70;;;9.10;1.00;;;;;;5068833;28;20442;-60
2022/03/21 07:58:49;;;;;;;9.90;6.60;;;;;;;;;;5073038;28;20248;-61
2022/03/21 08:01:16;;;;;;;8.60;7.17;;;9.20;1.00;;;;;;5072942;28;20453;-63
2022/03/21 08:03:41;;;;;;;14.30;6.93;;;9.30;1.00;;;;;;5071033;28;20951;-60
2022/03/21 08:06:10;;;;;;;8.20;6.90;;;9.50;1.00;;;;;;5070954;28;20473;-61
2022/03/21 08:08:37;;;;;;;10.37;6.20;;;9.70;1.00;;;;;;5072304;28;20266;-60
2022/03/21 08:11:05;;;;;;;10.30;6.47;;;9.80;1.00;;;;;;5073337;28;20480;-62
2022/03/21 08:13:32;;;;;;;7.80;6.13;;;9.80;1.00;;;;;;5055189;28;20444;-61
2022/03/21 08:15:59;;;;;;;7.87;6.27;;;10.00;1.00;;;;;;5073261;28;20729;-61
2022/03/21 08:18:25;;;;;;;7.70;6.23;;;10.00;1.00;;;;;;5073020;28;20974;-62
2022/03/21 08:20:50;;;;;;;7.97;7.17;;;10.20;1.00;;;;;;5073593;28;20471;-65
2022/03/21 08:23:16;;;;;;;12.20;6.33;;;10.20;1.00;;;;;;5073393;28;20465;-65
2022/03/21 08:25:45;;;;;;;7.27;6.57;;;10.30;1.00;;;;;;5072907;28;20191;-63
2022/03/21 08:28:11;;;;;;;9.83;7.10;;;10.50;1.00;;;;;;5071849;28;20628;-64
2022/03/21 08:30:38;;;;;;;8.23;6.43;;;10.40;1.00;;;;;;5071831;28;20440;-62
2022/03/21 08:33:06;;;;;;;13.80;7.07;;;10.40;1.00;;;;;;5072623;28;20786;-61
2022/03/21 08:35:33;;;;;;;8.73;6.57;;;10.40;1.00;;;;;;5072344;28;20441;-61
2022/03/21 08:37:59;;;;;;;7.87;6.43;;;10.50;1.00;;;;;;5072591;28;21149;-62
2022/03/21 08:40:26;;;;;;;8.43;6.53;;;10.80;1.00;;;;;;5072260;28;20552;-63
2022/03/21 08:42:52;;;;;;;9.07;6.80;;;11.10;1.00;;;;;;5072116;28;20438;-62
2022/03/21 08:45:18;;;;;;;8.47;7.10;;;11.20;1.00;;;;;;5072095;28;20425;-61
2022/03/21 08:47:43;;;;;;;7.30;6.33;;;11.90;1.00;;;;;;5072103;28;20544;-61
2022/03/21 08:50:10;;;;;;;6.30;5.70;;;12.10;1.00;;;;;;5072346;28;20441;-62
2022/03/21 08:52:36;;;;;;;10.17;7.00;;;11.80;1.00;;;;;;5068688;28;20194;-61
2022/03/21 08:55:04;;;;;;;6.80;5.60;;;11.90;1.00;;;;;;5070813;28;20513;-60
2022/03/21 08:57:30;;;;;;;7.37;6.60;;;11.90;1.00;;;;;;5071829;28;20226;-61
2022/03/21 08:59:56;;;;;;;8.23;6.70;;;11.70;1.00;;;;;;5071670;28;20465;-59
2022/03/21 09:02:22;;;;;;;8.53;6.77;;;11.60;1.00;;;;;;5072356;28;20438;-61
2022/03/21 09:04:49;;;;;;;8.73;7.83;;;11.50;1.00;;;;;;5072048;28;20526;-61
2022/03/21 09:07:15;;;;;;;11.20;6.73;;;11.30;1.00;;;;;;5071715;28;20179;-61
2022/03/21 09:09:42;;;;;;;7.50;6.60;;;11.20;1.00;;;;;;5072003;28;20491;-63
2022/03/21 09:12:08;;;;;;;8.60;7.70;;;11.40;1.00;;;;;;5067125;28;20454;-60
2022/03/21 09:14:35;;;;;;;8.00;6.47;;;11.40;1.00;;;;;;5071986;28;20429;-61
2022/03/21 09:17:01;;;;;;;11.10;6.97;;;11.70;1.00;;;;;;5070976;28;21109;-61
2022/03/21 09:19:29;;;;;;;9.03;7.23;;;11.80;1.00;;;;;;5071876;28;20469;-62
2022/03/21 09:21:57;;;;;;;7.33;6.50;;;11.90;1.00;;;;;;5070067;28;20483;-63
2022/03/21 09:24:23;;;;;;;9.70;7.10;;;11.90;1.00;;;;;;5071343;28;20430;-62
2022/03/21 09:26:50;;;;;;;12.17;7.43;;;11.80;1.00;;;;;;5071458;28;20429;-62
2022/03/21 09:29:16;;;;;;;10.77;6.50;;;11.80;1.00;;;;;;5071133;28;20491;-61
2022/03/21 09:31:41;;;;;;;8.07;6.53;;;11.80;1.00;;;;;;5071121;28;20429;-62
2022/03/21 09:34:12;;;;;;;8.90;6.30;;;11.90;1.00;;;;;;5071326;28;20179;-62
2022/03/21 09:36:38;;;;;;;7.60;6.60;;;12.00;1.00;;;;;;5071466;28;20210;-60
2022/03/21 09:39:06;;;;;;;7.70;6.27;;;12.00;1.00;;;;;;5053420;28;20579;-62
2022/03/21 09:41:32;;;;;;;8.80;7.17;;;12.30;1.00;;;;;;5071085;28;20429;-62
2022/03/21 09:44:00;;;;;;;7.13;6.30;;;12.50;1.00;;;;;;5070303;28;20984;-61
2022/03/21 09:46:26;;;;;;;7.60;6.70;;;12.50;1.00;;;;;;5052831;28;20452;-62
2022/03/21 09:48:53;;;;;;;10.50;6.87;;;12.80;1.00;;;;;;5070127;28;20524;-62
2022/03/21 09:51:29;;;;;;;9.53;6.77;;;12.70;1.00;;;;;;5070935;28;20183;-62
2022/03/21 09:54:00;;;;;;;7.63;6.83;;;12.80;1.00;;;;;;5071005;28;20451;-61
2022/03/21 09:56:27;;;;;;;8.93;7.13;;;12.80;1.00;;;;;;5069761;28;20822;-61
2022/03/21 09:58:59;;;;;;;9.03;6.87;;;13.40;1.00;;;;;;5050639;28;20554;-63
2022/03/21 10:01:25;;;;;;;9.87;6.50;;;13.30;1.00;;;;;;5070627;28;21018;-62
2022/03/21 10:03:51;;;;;;;7.20;6.07;;;13.10;1.00;;;;;;5070807;28;20992;-62
2022/03/21 10:06:33;;;;;;;7.00;6.30;;;13.10;1.00;;;;;;5069143;28;20457;-61
2022/03/21 10:09:13;;;;;;;8.47;6.67;;;13.20;1.00;;;;;;5070578;28;20202;-62
2022/03/21 10:11:54;;;;;;;7.23;6.43;;;10.80;1.00;;;;;;5070428;28;20433;-60
2022/03/21 10:14:23;;;;;;;9.20;7.00;;;13.40;1.00;;;;;;5069842;28;20438;-62
2022/03/21 10:17:00;;;;;;;7.37;6.13;;;13.40;1.00;;;;;;5070556;28;20434;-61
2022/03/21 10:19:27;;;;;;;8.03;6.53;;;13.40;1.00;;;;;;5070288;28;20514;-62
2022/03/21 10:22:08;;;;;;;8.13;7.33;;;13.40;1.00;;;;;;5070858;28;20474;-61
2022/03/21 10:24:39;;;;;;;8.30;7.00;;;13.70;1.00;;;;;;5070330;28;20438;-62
2022/03/21 10:27:06;;;;;;;8.23;6.37;;;13.70;1.00;;;;;;5070678;28;20469;-61
2022/03/21 10:29:31;;;;;;;7.73;6.77;;;13.70;1.00;;;;;;5070411;28;20842;-61
2022/03/21 10:31:58;;;;;;;8.13;7.23;;;13.80;1.00;;;;;;5069592;28;20434;-61
2022/03/21 10:34:33;;;;;;;8.30;6.50;;;13.70;1.00;;;;;;5070528;28;20193;-61
2022/03/21 10:37:08;;;;;;;8.93;6.83;;;13.80;1.00;;;;;;5070681;28;20441;-62
2022/03/21 10:39:50;;;;;;;8.80;6.80;;;13.90;1.00;;;;;;5070280;28;20460;-62
2022/03/21 10:42:16;;;;;;;7.63;6.90;;;14.00;1.00;;;;;;5069160;28;20489;-62
2022/03/21 10:44:54;;;;;;;7.10;6.40;;;14.10;1.00;;;;;;5070267;28;20434;-62
2022/03/21 10:47:20;;;;;;;7.37;6.67;;;14.10;1.00;;;;;;5068528;28;20441;-63
2022/03/21 10:49:45;;;;;;;8.07;6.77;;;14.20;1.00;;;;;;5066336;28;20445;-61
2022/03/21 10:52:19;;;;;;;8.17;7.10;;;14.40;1.00;;;;;;5070331;28;20187;-64
2022/03/21 10:54:48;;;;;;;11.10;7.33;;;14.50;1.00;;;;;;5070091;28;20189;-60
2022/03/21 10:57:36;;;;;;;8.63;6.50;;;14.60;1.00;;;;;;5070581;28;20516;-62
2022/03/21 11:00:34;;;;;;;8.90;7.17;;;14.70;1.00;;;;;;5066418;28;20468;-61
2022/03/21 11:03:05;;;;;;;10.13;8.40;;;14.70;1.00;;;;;;5025148;28;20476;-62
2022/03/21 11:05:37;;;;;;;9.37;7.93;;;14.80;1.00;;;;;;5065569;28;20521;-61
2022/03/21 11:08:05;;;;;;;10.47;8.70;;;14.70;1.00;;;;;;5069888;28;20455;-63
2022/03/21 11:10:31;;;;;;;9.00;7.80;;;14.80;1.00;;;;;;5051917;28;20584;-61
2022/03/21 11:13:01;;;;;;;9.07;7.90;;;14.80;1.00;;;;;;5071669;28;20909;-63
2022/03/21 11:15:27;;;;;;;8.00;7.03;;;;;;;;;;5063324;28;20434;-62
2022/03/21 11:17:55;;;;;;;9.90;7.90;;;14.50;1.00;;;;;;5070753;28;20444;-62
2022/03/21 11:20:21;;;;;;;10.00;8.00;;;14.70;1.00;;;;;;5069916;28;20823;-61
2022/03/21 11:22:47;;;;;;;10.73;8.50;;;;;;;;;;5072018;28;20484;-61
2022/03/21 11:25:17;;;;;;;8.60;7.80;;;14.70;1.00;;;;;;5069638;28;20444;-62
2022/03/21 11:28:23;;;;;;;10.07;8.50;;;14.90;1.00;;;;;;5055396;28;20449;-63
2022/03/21 11:31:34;;;;;;;11.33;8.87;;;14.90;1.00;;;;;;5072607;28;20980;-62
2022/03/21 11:34:07;;;;;;;8.20;7.37;;;14.80;1.00;;;;;;5026819;28;20453;-61
2022/03/21 11:36:32;;;;;;;12.83;7.87;;;14.50;1.00;;;;;;5073069;28;20447;-62
2022/03/21 11:39:00;;;;;;;7.80;7.00;;;14.60;1.00;;;;;;5071661;28;20520;-61
2022/03/21 11:41:28;;;;;;;8.30;7.40;;;14.60;1.00;;;;;;5072063;28;20191;-62
2022/03/21 11:44:06;;;;;;;9.63;7.17;;;14.80;1.00;;;;;;5072187;28;20449;-62
2022/03/21 11:46:37;;;;;;;13.03;8.80;;;14.80;1.00;;;;;;5072986;28;20570;-62
2022/03/21 11:49:04;;;;;;;8.87;7.97;;;14.70;1.00;;;;;;5071190;28;20442;-63
2022/03/21 11:51:40;;;;;;;8.87;8.03;;;15.10;1.00;;;;;;5052508;28;20507;-62
2022/03/21 11:54:24;;;;;;;11.33;9.20;;;15.00;1.00;;;;;;5068945;28;20941;-64
2022/03/21 11:56:52;;;;;;;8.97;7.70;;;15.00;1.00;;;;;;5073212;28;20445;-64
2022/03/21 11:59:33;;;;;;;9.00;8.07;;;15.30;1.00;;;;;;5072890;28;20877;-63
2022/03/21 12:01:59;;;;;;;9.67;8.20;;;15.10;1.00;;;;;;5072844;28;20459;-63
2022/03/21 12:04:26;;;;;;;10.00;7.60;;;15.00;1.00;;;;;;5067135;28;20454;-64
2022/03/21 12:07:00;;;;;;;8.50;7.67;;;15.10;1.00;;;;;;5069252;28;20511;-62
2022/03/21 12:09:46;;;;;;;11.83;8.30;;;15.20;1.00;;;;;;5072112;28;20828;-63
2022/03/21 12:12:18;;;;;;;8.50;7.63;;;15.30;1.00;;;;;;5069741;28;20437;-63
2022/03/21 12:14:56;;;;;;;8.80;7.23;;;15.30;1.00;;;;;;5067955;28;20441;-63
2022/03/21 12:17:22;;;;;;;9.20;8.30;;;15.30;1.00;;;;;;5071538;28;20438;-62
2022/03/21 12:19:47;;;;;;;9.47;8.47;;;15.40;1.00;;;;;;5064560;28;20481;-61
2022/03/21 12:22:34;;;;;;;10.13;8.70;;;15.10;1.00;;;;;;5066722;28;20225;-62
2022/03/21 12:25:16;;;;;;;11.00;7.80;;;15.00;1.00;;;;;;5069587;28;20179;-62
2022/03/21 12:27:52;;;;;;;10.10;8.30;;;15.00;1.00;;;;;;5069601;28;20524;-63
2022/03/21 12:30:30;;;;;;;11.57;8.83;;;15.30;1.00;;;;;;5071444;28;20855;-63
2022/03/21 12:33:10;;;;;;;8.80;7.90;;;15.30;1.00;;;;;;5072341;28;20496;-64
2022/03/21 12:35:40;;;;;;;8.80;8.00;;;15.30;1.00;;;;;;5070952;28;20448;-64
2022/03/21 12:38:17;;;;;;;9.07;8.17;;;15.50;1.00;;;;;;5071625;28;20446;-65
2022/03/21 12:40:55;;;;;;;9.60;8.30;;;15.50;1.00;;;;;;5072069;28;20469;-63
2022/03/21 12:43:21;;;;;;;8.50;7.70;;;15.60;1.00;;;;;;5067365;28;20494;-63
2022/03/21 12:45:49;;;;;;;10.73;8.27;;;15.60;1.00;;;;;;5074682;28;20942;-64
2022/03/21 12:48:19;;;;;;;10.00;8.77;;;15.80;1.00;;;;;;5068221;28;20483;-63
2022/03/21 12:50:49;;;;;;;9.50;8.20;;;15.90;1.00;;;;;;5066291;28;20446;-62
2022/03/21 12:53:18;;;;;;;11.87;7.93;;;16.00;1.00;;;;;;5068550;28;20947;-63
2022/03/21 12:55:44;;;;;;;10.90;8.50;;;15.80;1.00;;;;;;5053338;28;20481;-63
2022/03/21 12:58:14;;;;;;;10.33;8.90;;;15.80;1.00;;;;;;5068297;28;20450;-63
2022/03/21 13:00:43;;;;;;;9.70;8.80;;;15.50;1.00;;;;;;5071472;28;20472;-64
2022/03/21 13:03:09;;;;;;;10.17;8.67;;;15.50;1.00;;;;;;5070500;28;20449;-63
2022/03/21 13:11:32;;;;;;;10.93;9.20;;;15.40;1.00;;;;;;5068129;28;20456;-63
2022/03/21 13:14:06;;;;;;;14.97;9.10;;;15.40;1.00;;;;;;5068439;28;20988;-62
2022/03/21 13:16:38;;;;;;;11.53;9.77;;;15.60;1.00;;;;;;5069698;28;20439;-62
2022/03/21 13:19:06;;;;;;;12.07;9.10;;;15.70;1.00;;;;;;5051193;28;20448;-62
2022/03/21 13:21:35;;;;;;;11.87;10.73;;;15.70;1.00;;;;;;5067073;28;20786;-63
2022/03/21 13:24:01;;;;;;;10.33;9.20;;;15.70;1.00;;;;;;5069790;28;20442;-64
2022/03/21 13:26:27;;;;;;;10.30;9.20;;;15.70;1.00;;;;;;5068240;28;20434;-66
2022/03/21 13:29:03;;;;;;;10.63;8.80;;;15.90;1.00;;;;;;5067384;28;20747;-64